createdAt,value
2023-03-21T00:01:16.470Z,12.25
2023-03-21T00:03:52.179Z,12.40
2023-03-21T00:06:28.607Z,12.18
2023-03-21T00:09:02.993Z,12.33
2023-03-21T00:11:31.139Z,12.35
2023-03-21T00:14:14.744Z,12.39
2023-03-21T00:16:50.496Z,12.29
2023-03-21T00:19:22.351Z,12.36
2023-03-21T00:22:06.443Z,12.42
2023-03-21T00:24:39.728Z,12.24
2023-03-21T00:27:39.352Z,12.13
2023-03-21T00:30:14.410Z,12.28
2023-03-21T00:32:55.341Z,12.26
2023-03-21T00:36:06.107Z,12.30
2023-03-21T00:38:17.131Z,12.14
2023-03-21T00:40:49.161Z,12.16
2023-03-21T00:43:31.860Z,12.31
2023-03-21T00:46:14.538Z,12.35
2023-03-21T00:48:43.047Z,12.23
2023-03-21T00:51:26.134Z,12.22
2023-03-21T00:53:57.958Z,12.47
2023-03-21T00:56:34.205Z,12.26
2023-03-21T00:59:05.206Z,12.13
2023-03-21T01:01:41.538Z,12.24
2023-03-21T01:04:22.093Z,12.08
2023-03-21T01:06:53.650Z,12.23
2023-03-21T01:09:33.740Z,12.15
2023-03-21T01:12:04.578Z,12.54
2023-03-21T01:14:35.001Z,12.39
2023-03-21T01:17:07.485Z,12.48
2023-03-21T01:19:51.128Z,12.49
2023-03-21T01:22:21.795Z,12.49
2023-03-21T01:24:58.592Z,12.48
2023-03-21T01:27:33.555Z,12.61
2023-03-21T01:30:06.313Z,12.53
2023-03-21T01:32:46.742Z,12.52
2023-03-21T01:35:17.857Z,12.51
2023-03-21T01:37:50.184Z,12.68
2023-03-21T01:40:28.736Z,12.53
2023-03-21T01:43:22.874Z,12.52
2023-03-21T01:46:54.438Z,12.59
2023-03-21T01:49:53.534Z,12.56
2023-03-21T01:52:38.099Z,12.37
2023-03-21T01:55:27.488Z,12.51
2023-03-21T01:58:12.341Z,12.45
2023-03-21T02:01:00.705Z,12.43
2023-03-21T02:03:51.085Z,12.50
2023-03-21T02:06:54.208Z,12.49
2023-03-21T02:09:36.755Z,12.46
2023-03-21T02:12:11.197Z,12.35
2023-03-21T02:14:48.935Z,12.47
2023-03-21T02:17:34.693Z,12.44
2023-03-21T02:20:45.511Z,12.50
2023-03-21T02:24:10.925Z,12.42
2023-03-21T02:27:11.578Z,12.38
2023-03-21T02:30:28.253Z,12.21
2023-03-21T02:33:27.189Z,12.31
2023-03-21T02:36:26.627Z,12.34
2023-03-21T02:39:14.259Z,12.29
2023-03-21T02:41:51.159Z,12.30
2023-03-21T02:44:39.367Z,12.32
2023-03-21T02:47:14.324Z,12.37
2023-03-21T02:49:49.604Z,12.30
2023-03-21T02:52:37.427Z,12.41
2023-03-21T02:55:16.894Z,12.16
2023-03-21T02:58:12.871Z,12.26
2023-03-21T03:00:55.575Z,12.41
2023-03-21T03:03:47.912Z,12.17
2023-03-21T03:06:20.890Z,12.27
2023-03-21T03:09:05.054Z,12.19
2023-03-21T03:11:48.270Z,12.01
2023-03-21T03:14:53.138Z,12.05
2023-03-21T03:17:40.602Z,12.20
2023-03-21T03:20:24.872Z,12.08
2023-03-21T03:23:01.916Z,12.02
2023-03-21T03:25:43.003Z,12.11
2023-03-21T03:28:22.029Z,12.04
2023-03-21T03:31:07.505Z,12.09
2023-03-21T03:33:47.654Z,11.76
2023-03-21T03:36:31.590Z,12.00
2023-03-21T03:39:05.895Z,11.92
2023-03-21T03:42:04.404Z,11.94
2023-03-21T03:44:48.688Z,11.93
2023-03-21T03:47:33.794Z,11.83
2023-03-21T03:50:11.663Z,11.84
2023-03-21T03:52:55.242Z,11.92
2023-03-21T03:55:34.638Z,11.83
2023-03-21T03:58:23.578Z,11.84
2023-03-21T04:01:11.181Z,11.73
2023-03-21T04:04:03.590Z,11.72
2023-03-21T04:06:37.068Z,11.74
2023-03-21T04:09:19.251Z,11.97
2023-03-21T04:11:50.446Z,11.89
2023-03-21T04:14:25.569Z,11.74
2023-03-21T04:17:07.057Z,11.70
2023-03-21T04:19:44.089Z,11.68
2023-03-21T04:22:12.659Z,11.66
2023-03-21T04:24:53.892Z,11.77
2023-03-21T04:27:25.099Z,11.78
2023-03-21T04:30:27.266Z,11.68
2023-03-21T04:33:13.348Z,11.77
2023-03-21T04:35:53.366Z,11.47
2023-03-21T04:38:30.465Z,11.39
2023-03-21T04:41:06.124Z,11.60
2023-03-21T04:43:57.904Z,11.55
2023-03-21T04:46:27.369Z,11.66
2023-03-21T04:49:05.169Z,11.46
2023-03-21T04:51:34.440Z,11.57
2023-03-21T04:54:06.873Z,11.58
2023-03-21T04:56:36.469Z,11.50
2023-03-21T04:59:11.789Z,11.69
2023-03-21T05:01:43.984Z,11.24
2023-03-21T05:04:20.316Z,11.33
2023-03-21T05:06:51.940Z,11.40
2023-03-21T05:09:29.768Z,11.10
2023-03-21T05:12:06.392Z,11.38
2023-03-21T05:14:38.896Z,11.25
2023-03-21T05:17:15.535Z,11.47
2023-03-21T05:19:53.790Z,11.53
2023-03-21T05:22:29.447Z,11.50
2023-03-21T05:25:07.788Z,11.44
2023-03-21T05:28:11.978Z,11.54
2023-03-21T05:30:42.308Z,11.37
2023-03-21T05:33:19.091Z,11.44
2023-03-21T05:35:55.019Z,11.50
2023-03-21T05:38:26.125Z,11.38
2023-03-21T05:40:58.676Z,11.30
2023-03-21T05:43:33.213Z,11.48
2023-03-21T05:46:04.927Z,11.40
2023-03-21T05:48:35.992Z,11.53
2023-03-21T05:51:31.880Z,11.43
2023-03-21T05:54:03.065Z,11.27
2023-03-21T05:56:37.063Z,11.54
2023-03-21T05:59:17.730Z,11.45
2023-03-21T06:01:50.598Z,11.55
2023-03-21T06:04:21.961Z,11.71
2023-03-21T06:06:58.312Z,11.67
2023-03-21T06:09:27.465Z,11.73
2023-03-21T06:12:09.686Z,11.70
2023-03-21T06:15:06.212Z,11.76
2023-03-21T06:18:03.486Z,11.77
2023-03-21T06:20:32.433Z,11.97
2023-03-21T06:23:11.177Z,11.92
2023-03-21T06:25:48.860Z,11.97
2023-03-21T06:28:18.190Z,11.99
2023-03-21T06:30:52.702Z,11.84
2023-03-21T06:33:27.019Z,12.03
2023-03-21T06:35:56.228Z,12.19
2023-03-21T06:38:49.127Z,12.27
2023-03-21T06:41:24.092Z,12.33
2023-03-21T06:44:05.100Z,12.36
2023-03-21T06:46:46.863Z,12.44
2023-03-21T06:49:30.955Z,12.34
2023-03-21T06:52:15.713Z,12.52
2023-03-21T06:54:51.177Z,12.58
2023-03-21T06:57:21.957Z,12.46
2023-03-21T06:59:56.453Z,12.49
2023-03-21T07:02:26.826Z,12.71
2023-03-21T07:05:16.146Z,12.32
2023-03-21T07:07:45.819Z,12.42
2023-03-21T07:10:15.569Z,12.61
2023-03-21T07:13:08.426Z,12.81
2023-03-21T07:15:52.766Z,12.82
2023-03-21T07:18:21.529Z,12.95
2023-03-21T07:20:54.708Z,12.99
2023-03-21T07:23:25.841Z,12.82
2023-03-21T07:26:02.120Z,12.98
2023-03-21T07:28:31.429Z,12.89
2023-03-21T07:31:09.718Z,12.93
2023-03-21T07:33:38.927Z,13.24
2023-03-21T07:36:12.648Z,13.10
2023-03-21T07:38:42.473Z,13.15
2023-03-21T07:41:20.288Z,13.04
2023-03-21T07:43:54.809Z,13.19
2023-03-21T07:46:31.867Z,13.36
2023-03-21T07:49:03.057Z,13.37
2023-03-21T07:51:31.380Z,13.46
2023-03-21T07:54:06.848Z,13.36
2023-03-21T07:56:44.909Z,13.48
2023-03-21T07:59:19.290Z,13.48
2023-03-21T08:01:47.451Z,13.48
2023-03-21T08:04:19.390Z,13.55
2023-03-21T08:06:49.172Z,13.44
2023-03-21T08:09:18.557Z,13.52
2023-03-21T08:11:48.788Z,13.64
2023-03-21T08:14:27.369Z,13.71
2023-03-21T08:17:01.588Z,13.65
2023-03-21T08:19:40.667Z,13.76
2023-03-21T08:22:24.844Z,13.84
2023-03-21T08:24:55.695Z,13.87
2023-03-21T08:27:30.293Z,14.33
2023-03-21T08:29:58.736Z,14.37
2023-03-21T08:32:29.922Z,14.26
2023-03-21T08:35:13.476Z,14.31
2023-03-21T08:37:47.343Z,14.44
2023-03-21T08:40:18.651Z,14.68
2023-03-21T08:42:52.603Z,14.69
2023-03-21T08:45:33.148Z,14.57
2023-03-21T08:48:05.208Z,14.50
2023-03-21T08:50:36.199Z,14.75
2023-03-21T08:53:05.817Z,14.65
2023-03-21T08:55:38.697Z,14.72
2023-03-21T08:58:23.456Z,14.81
2023-03-21T09:00:55.585Z,14.93
2023-03-21T09:03:29.470Z,14.97
2023-03-21T09:06:03.242Z,14.93
2023-03-21T09:08:46.498Z,14.61
2023-03-21T09:11:23.081Z,14.83
2023-03-21T09:13:55.211Z,15.01
2023-03-21T09:16:25.212Z,14.84
2023-03-21T09:18:55.922Z,14.79
2023-03-21T09:21:25.108Z,14.82
2023-03-21T09:23:57.228Z,14.79
2023-03-21T09:26:31.327Z,14.97
2023-03-21T09:29:13.207Z,14.69
2023-03-21T09:31:52.204Z,14.67
2023-03-21T09:34:23.337Z,14.87
2023-03-21T09:36:57.128Z,14.88
2023-03-21T09:39:27.773Z,15.11
2023-03-21T09:42:14.211Z,15.33
2023-03-21T09:45:08.923Z,15.18
2023-03-21T09:47:51.695Z,15.49
2023-03-21T09:50:29.461Z,15.18
2023-03-21T09:53:02.119Z,15.46
2023-03-21T09:55:43.733Z,15.36
2023-03-21T09:58:28.650Z,15.50
2023-03-21T10:01:11.294Z,15.62
2023-03-21T10:03:44.081Z,16.01
2023-03-21T10:06:24.590Z,16.02
2023-03-21T10:08:55.472Z,15.93
2023-03-21T10:11:28.134Z,15.49
2023-03-21T10:14:07.374Z,15.35
2023-03-21T10:16:46.767Z,15.61
2023-03-21T10:19:25.295Z,15.94
2023-03-21T10:22:01.338Z,16.15
2023-03-21T10:24:36.979Z,16.13
2023-03-21T10:27:08.673Z,16.14
2023-03-21T10:29:43.967Z,16.00
2023-03-21T10:32:29.635Z,15.87
2023-03-21T10:35:04.877Z,15.60
2023-03-21T10:37:36.407Z,15.40
2023-03-21T10:40:06.671Z,15.47
2023-03-21T10:42:37.263Z,15.31
2023-03-21T10:45:23.552Z,15.76
2023-03-21T10:47:55.751Z,15.54
2023-03-21T10:50:31.265Z,15.51
2023-03-21T10:53:09.017Z,15.61
2023-03-21T10:55:42.107Z,15.40
2023-03-21T10:58:25.249Z,15.57
2023-03-21T11:00:59.373Z,15.56
2023-03-21T11:03:37.797Z,15.55
2023-03-21T11:06:19.842Z,15.45
2023-03-21T11:08:50.977Z,15.82
2023-03-21T11:11:31.387Z,15.88
2023-03-21T11:14:09.749Z,16.35
2023-03-21T11:16:42.730Z,16.46
2023-03-21T11:19:37.224Z,16.40
2023-03-21T11:22:08.401Z,16.68
2023-03-21T11:24:46.418Z,16.63
2023-03-21T11:27:23.224Z,16.38
2023-03-21T11:29:55.315Z,16.14
2023-03-21T11:32:30.280Z,16.05
2023-03-21T11:35:21.302Z,16.70
2023-03-21T11:37:57.114Z,16.79
2023-03-21T11:40:28.752Z,16.73
2023-03-21T11:42:59.792Z,16.91
2023-03-21T11:45:31.214Z,17.23
2023-03-21T11:48:02.607Z,16.84
2023-03-21T11:50:40.113Z,17.33
2023-03-21T11:53:27.217Z,17.46
2023-03-21T11:56:22.352Z,17.49
2023-03-21T11:59:04.802Z,17.68
2023-03-21T12:01:43.929Z,17.63
2023-03-21T12:04:27.341Z,17.33
2023-03-21T12:07:06.897Z,17.85
2023-03-21T12:09:41.626Z,18.05
2023-03-21T12:12:38.258Z,18.53
2023-03-21T12:15:14.637Z,18.24
2023-03-21T12:17:54.259Z,17.54
2023-03-21T12:20:42.862Z,17.16
2023-03-21T12:23:47.730Z,17.06
2023-03-21T12:26:24.408Z,16.98
2023-03-21T12:29:47.138Z,17.04
2023-03-21T12:32:38.396Z,17.47
2023-03-21T12:35:19.937Z,17.42
2023-03-21T12:37:59.111Z,17.22
2023-03-21T12:41:06.538Z,17.19
2023-03-21T12:43:55.333Z,16.76
2023-03-21T12:46:35.278Z,16.60
2023-03-21T12:49:09.352Z,16.76
2023-03-21T12:51:51.268Z,16.78
2023-03-21T12:54:28.022Z,16.76
2023-03-21T12:57:26.228Z,16.74
2023-03-21T13:00:09.776Z,16.77
2023-03-21T13:02:42.819Z,16.83
2023-03-21T13:05:22.777Z,17.06
2023-03-21T13:07:58.530Z,16.99
2023-03-21T13:10:29.442Z,17.11
2023-03-21T13:13:21.046Z,17.07
2023-03-21T13:16:35.223Z,17.21
2023-03-21T13:19:08.732Z,17.13
2023-03-21T13:21:50.636Z,17.02
2023-03-21T13:24:30.758Z,17.02
2023-03-21T13:27:04.316Z,17.04
2023-03-21T13:29:49.387Z,17.04
2023-03-21T13:32:24.653Z,16.78
2023-03-21T13:35:00.158Z,16.80
2023-03-21T13:37:32.745Z,16.86
2023-03-21T13:40:26.119Z,17.04
2023-03-21T13:42:59.351Z,17.08
2023-03-21T13:45:52.914Z,17.23
2023-03-21T13:48:29.624Z,17.31
2023-03-21T13:51:04.585Z,17.28
2023-03-21T13:53:34.901Z,17.14
2023-03-21T13:56:26.697Z,17.22
2023-03-21T13:59:05.060Z,17.21
2023-03-21T14:02:00.652Z,16.85
2023-03-21T14:04:41.914Z,17.17
2023-03-21T14:07:23.186Z,17.12
2023-03-21T14:10:00.302Z,17.22
2023-03-21T14:12:31.878Z,17.09
2023-03-21T14:15:14.006Z,16.92
2023-03-21T14:17:52.915Z,17.02
2023-03-21T14:20:35.846Z,16.84
2023-03-21T14:23:06.624Z,16.72
2023-03-21T14:25:47.559Z,16.75
2023-03-21T14:28:21.795Z,16.72
2023-03-21T14:30:53.802Z,16.66
2023-03-21T14:33:28.156Z,16.76
2023-03-21T14:35:59.816Z,16.74
2023-03-21T14:38:30.097Z,16.52
2023-03-21T14:41:02.434Z,16.69
2023-03-21T14:43:37.599Z,16.74
2023-03-21T14:46:07.588Z,16.58
2023-03-21T14:48:44.769Z,16.74
2023-03-21T14:51:15.327Z,16.75
2023-03-21T14:53:46.156Z,16.83
2023-03-21T14:56:20.014Z,16.95
2023-03-21T14:58:49.474Z,16.89
2023-03-21T15:01:25.930Z,16.92
2023-03-21T15:04:01.574Z,17.13
2023-03-21T15:06:32.491Z,16.86
2023-03-21T15:09:04.770Z,17.10
2023-03-21T15:11:37.012Z,16.98
2023-03-21T15:14:06.856Z,16.97
2023-03-21T15:16:44.406Z,17.05
2023-03-21T15:19:24.153Z,17.46
2023-03-21T15:21:59.768Z,17.50
2023-03-21T15:24:32.819Z,17.46
2023-03-21T15:27:04.681Z,17.12
2023-03-21T15:29:35.645Z,17.17
2023-03-21T15:32:30.127Z,16.92
2023-03-21T15:35:09.735Z,17.10
2023-03-21T15:37:39.373Z,17.05
2023-03-21T15:40:15.529Z,17.00
2023-03-21T15:42:46.496Z,17.10
2023-03-21T15:45:25.712Z,16.71
2023-03-21T15:47:56.730Z,16.73
2023-03-21T15:50:39.029Z,16.72
2023-03-21T15:53:17.960Z,16.60
2023-03-21T15:55:53.219Z,16.64
2023-03-21T15:58:27.522Z,16.53
2023-03-21T16:01:06.515Z,16.65
2023-03-21T16:03:49.135Z,16.67
2023-03-21T16:06:33.808Z,16.48
2023-03-21T16:09:11.664Z,16.57
2023-03-21T16:11:50.324Z,16.33
2023-03-21T16:14:22.073Z,16.50
2023-03-21T16:16:51.447Z,16.95
2023-03-21T16:19:20.930Z,17.09
2023-03-21T16:21:53.012Z,17.06
2023-03-21T16:24:24.322Z,16.80
2023-03-21T16:27:02.319Z,16.91
2023-03-21T16:29:31.416Z,16.78
2023-03-21T16:32:09.674Z,16.81
2023-03-21T16:34:41.582Z,16.69
2023-03-21T16:37:30.320Z,16.56
2023-03-21T16:40:01.729Z,16.63
2023-03-21T16:42:38.016Z,16.45
2023-03-21T16:45:17.921Z,16.56
2023-03-21T16:47:49.524Z,16.54
2023-03-21T16:50:30.251Z,16.50
2023-03-21T16:53:10.638Z,16.67
2023-03-21T16:55:40.374Z,16.74
2023-03-21T16:58:15.418Z,16.42
2023-03-21T17:00:50.660Z,16.53
2023-03-21T17:03:21.641Z,16.24
2023-03-21T17:05:54.642Z,16.41
2023-03-21T17:08:40.052Z,16.21
2023-03-21T17:11:10.833Z,16.27
2023-03-21T17:13:55.745Z,16.18
2023-03-21T17:16:27.114Z,16.28
2023-03-21T17:19:03.453Z,16.18
2023-03-21T17:21:35.914Z,16.16
2023-03-21T17:24:09.060Z,16.13
2023-03-21T17:26:40.669Z,16.21
2023-03-21T17:29:22.229Z,16.01
2023-03-21T17:31:59.716Z,15.97
2023-03-21T17:34:39.032Z,16.14
2023-03-21T17:37:12.898Z,16.17
2023-03-21T17:39:56.896Z,16.02
2023-03-21T17:42:47.720Z,15.99
2023-03-21T17:45:23.379Z,15.87
2023-03-21T17:48:12.151Z,15.86
2023-03-21T17:50:54.085Z,15.73
2023-03-21T17:53:30.116Z,15.83
2023-03-21T17:56:02.612Z,15.82
2023-03-21T17:58:39.712Z,15.80
2023-03-21T18:01:26.695Z,15.77
2023-03-21T18:04:06.250Z,15.70
2023-03-21T18:06:39.334Z,15.61
2023-03-21T18:09:15.291Z,15.60
2023-03-21T18:11:54.798Z,15.57
2023-03-21T18:14:31.991Z,15.49
2023-03-21T18:17:04.274Z,15.41
2023-03-21T18:19:43.242Z,15.43
2023-03-21T18:22:20.439Z,15.39
2023-03-21T18:24:56.629Z,15.60
2023-03-21T18:27:33.512Z,15.47
2023-03-21T18:30:32.865Z,15.51
2023-03-21T18:33:02.005Z,15.42
2023-03-21T18:35:34.403Z,15.42
2023-03-21T18:38:13.883Z,15.37
2023-03-21T18:40:52.703Z,15.34
2023-03-21T18:46:40.081Z,15.12
2023-03-21T18:50:02.073Z,15.08
2023-03-21T18:52:26.907Z,14.96
2023-03-21T18:55:01.391Z,14.82
2023-03-21T18:57:39.315Z,14.88
2023-03-21T19:00:34.581Z,14.89
2023-03-21T19:03:26.982Z,14.87
2023-03-21T19:06:07.674Z,14.80
2023-03-21T19:08:53.489Z,14.74
2023-03-21T19:11:46.285Z,14.81
2023-03-21T19:14:21.964Z,14.91
2023-03-21T19:20:20.270Z,14.87
2023-03-21T19:23:09.491Z,14.84
2023-03-21T19:25:57.607Z,14.82
2023-03-21T19:28:33.994Z,14.82
2023-03-21T19:31:29.260Z,14.77
2023-03-21T19:34:29.895Z,14.62
2023-03-21T19:37:08.661Z,14.59
2023-03-21T19:39:40.636Z,14.43
2023-03-21T19:42:16.940Z,14.48
2023-03-21T19:45:06.623Z,14.64
2023-03-21T19:47:49.550Z,14.65
2023-03-21T19:51:13.408Z,14.46
2023-03-21T19:53:24.621Z,14.58
2023-03-21T19:56:23.105Z,14.34
2023-03-21T19:59:04.289Z,14.38
2023-03-21T20:01:48.579Z,14.22
2023-03-21T20:04:20.807Z,14.12
2023-03-21T20:07:24.825Z,14.14
2023-03-21T20:10:07.700Z,14.10
2023-03-21T20:12:50.456Z,14.10
2023-03-21T20:15:31.406Z,14.12
2023-03-21T20:18:15.101Z,14.02
2023-03-21T20:20:56.651Z,13.93
2023-03-21T20:23:44.166Z,13.83
2023-03-21T20:26:19.203Z,13.87
2023-03-21T20:30:03.835Z,13.93
2023-03-21T20:32:12.629Z,14.02
2023-03-21T20:35:05.595Z,13.79
2023-03-21T20:37:53.433Z,13.88
2023-03-21T20:40:41.349Z,13.64
2023-03-21T20:43:52.131Z,13.57
2023-03-21T20:46:05.620Z,13.73
2023-03-21T20:48:43.983Z,13.81
2023-03-21T20:54:18.787Z,13.76
2023-03-21T20:57:04.227Z,13.84
2023-03-21T20:59:36.376Z,13.74
2023-03-21T21:02:08.615Z,13.54
2023-03-21T21:05:17.711Z,13.67
2023-03-21T21:07:55.612Z,13.88
2023-03-21T21:10:33.519Z,13.64
2023-03-21T21:13:34.659Z,13.65
2023-03-21T21:16:05.724Z,13.80
2023-03-21T21:18:40.204Z,13.79
2023-03-21T21:21:20.967Z,13.83
2023-03-21T21:23:51.651Z,13.76
2023-03-21T21:26:23.459Z,13.65
2023-03-21T21:28:58.460Z,13.70
2023-03-21T21:31:45.049Z,13.76
2023-03-21T21:34:18.830Z,13.71
2023-03-21T21:36:52.845Z,13.83
2023-03-21T21:39:32.820Z,13.86
2023-03-21T21:42:17.702Z,13.84
2023-03-21T21:44:53.039Z,13.67
2023-03-21T21:47:24.002Z,13.73
2023-03-21T21:49:58.402Z,13.68
2023-03-21T21:52:32.255Z,13.74
2023-03-21T21:55:04.177Z,13.84
2023-03-21T21:57:44.101Z,13.75
2023-03-21T22:00:22.982Z,13.74
2023-03-21T22:03:02.099Z,13.78
2023-03-21T22:05:33.464Z,13.72
2023-03-21T22:08:02.793Z,13.81
2023-03-21T22:10:36.741Z,13.77
2023-03-21T22:13:08.972Z,13.75
2023-03-21T22:15:53.208Z,13.76
2023-03-21T22:18:23.833Z,13.80
2023-03-21T22:20:56.605Z,13.73
2023-03-21T22:23:33.972Z,13.81
2023-03-21T22:26:08.231Z,13.69
2023-03-21T22:28:40.531Z,13.81
2023-03-21T22:31:13.548Z,13.69
2023-03-21T22:33:42.076Z,13.85
2023-03-21T22:36:22.821Z,13.70
2023-03-21T22:39:00.068Z,13.80
2023-03-21T22:41:32.386Z,13.76
2023-03-21T22:44:01.013Z,13.72
2023-03-21T22:46:38.357Z,13.77
2023-03-21T22:49:17.777Z,13.76
2023-03-21T22:51:50.530Z,13.78
2023-03-21T22:54:23.388Z,13.79
2023-03-21T22:56:54.305Z,13.90
2023-03-21T22:59:23.174Z,13.87
2023-03-21T23:02:07.123Z,13.77
2023-03-21T23:04:37.864Z,13.66
2023-03-21T23:07:07.450Z,13.49
2023-03-21T23:09:45.197Z,13.54
2023-03-21T23:12:16.932Z,13.47
2023-03-21T23:14:47.525Z,13.59
2023-03-21T23:17:20.958Z,13.54
2023-03-21T23:19:49.657Z,13.51
2023-03-21T23:22:27.155Z,13.52
2023-03-21T23:25:02.169Z,13.54
2023-03-21T23:27:35.836Z,13.42
2023-03-21T23:30:09.180Z,13.57
2023-03-21T23:32:43.862Z,13.43
2023-03-21T23:35:21.634Z,13.50
2023-03-21T23:38:01.990Z,13.42
2023-03-21T23:40:41.399Z,13.29
2023-03-21T23:43:12.807Z,13.24
2023-03-21T23:45:42.818Z,13.30
2023-03-21T23:48:13.760Z,13.46
2023-03-21T23:50:42.668Z,13.47
2023-03-21T23:53:11.919Z,13.36
2023-03-21T23:55:45.038Z,13.28
2023-03-21T23:58:22.113Z,13.34
